createdAt,value
2019-02-12T00:01:17.318Z,14.35
2019-02-12T00:03:46.137Z,12.15
2019-02-12T00:06:14.925Z,15.08
2019-02-12T00:08:43.625Z,14.40
2019-02-12T00:11:12.303Z,12.30
2019-02-12T00:13:40.650Z,9.95
2019-02-12T00:16:09.395Z,17.20
2019-02-12T00:18:38.078Z,11.80
2019-02-12T00:21:09.123Z,16.42
2019-02-12T00:23:37.560Z,18.77
2019-02-12T00:26:06.269Z,19.12
2019-02-12T00:28:34.962Z,16.80
2019-02-12T00:31:03.616Z,15.10
2019-02-12T00:33:32.289Z,13.88
2019-02-12T00:36:00.652Z,16.27
2019-02-12T00:38:29.349Z,12.50
2019-02-12T00:40:58.432Z,19.23
2019-02-12T00:43:27.185Z,15.70
2019-02-12T00:45:55.956Z,18.55
2019-02-12T00:48:24.713Z,18.35
2019-02-12T00:50:53.382Z,17.65
2019-02-12T00:53:22.090Z,18.40
2019-02-12T00:55:50.754Z,23.25
2019-02-12T00:58:19.133Z,11.85
2019-02-12T01:00:47.882Z,12.60
2019-02-12T01:03:16.806Z,13.83
2019-02-12T01:05:45.473Z,18.60
2019-02-12T01:08:14.155Z,16.93
2019-02-12T01:10:42.973Z,20.80
2019-02-12T01:13:11.693Z,17.20
2019-02-12T01:15:40.402Z,12.65
2019-02-12T01:18:09.077Z,9.38
2019-02-12T01:20:37.411Z,14.07
2019-02-12T01:23:06.073Z,18.50
2019-02-12T01:25:34.729Z,13.78
2019-02-12T01:28:03.451Z,21.20
2019-02-12T01:30:32.294Z,13.20
2019-02-12T01:33:01.003Z,10.28
2019-02-12T01:35:29.693Z,12.40
2019-02-12T01:37:58.478Z,16.05
2019-02-12T01:40:26.810Z,16.65
2019-02-12T01:42:55.996Z,8.70
2019-02-12T01:45:25.289Z,9.48
2019-02-12T01:47:54.317Z,10.93
2019-02-12T01:50:23.261Z,11.00
2019-02-12T01:52:51.921Z,10.45
2019-02-12T01:55:20.601Z,11.95
2019-02-12T01:57:49.289Z,18.32
2019-02-12T02:00:18.021Z,12.93
2019-02-12T02:02:46.425Z,12.30
2019-02-12T02:05:15.101Z,12.45
2019-02-12T02:07:44.101Z,13.72
2019-02-12T02:10:15.201Z,13.05
2019-02-12T02:12:43.878Z,15.08
2019-02-12T02:15:12.734Z,14.83
2019-02-12T02:17:41.402Z,15.03
2019-02-12T02:20:10.223Z,17.82
2019-02-12T02:22:38.980Z,10.90
2019-02-12T02:25:08.128Z,29.23
2019-02-12T02:27:36.955Z,11.60
2019-02-12T02:30:06.160Z,13.48
2019-02-12T02:32:34.818Z,13.13
2019-02-12T02:35:03.535Z,14.28
2019-02-12T02:37:32.246Z,14.50
2019-02-12T02:40:00.960Z,8.98
2019-02-12T02:42:29.683Z,18.92
2019-02-12T02:44:58.470Z,15.78
2019-02-12T02:47:26.741Z,9.68
2019-02-12T02:49:55.551Z,17.30
2019-02-12T02:52:24.198Z,11.53
2019-02-12T02:54:52.919Z,11.30
2019-02-12T02:57:21.853Z,9.50
2019-02-12T02:59:50.600Z,11.60
2019-02-12T03:02:19.309Z,8.48
2019-02-12T03:04:47.994Z,15.78
2019-02-12T03:07:16.686Z,11.35
2019-02-12T03:09:44.997Z,11.08
2019-02-12T03:12:13.678Z,10.95
2019-02-12T03:14:42.480Z,9.55
2019-02-12T03:17:11.218Z,10.15
2019-02-12T03:19:39.926Z,18.32
2019-02-12T03:22:08.581Z,12.07
2019-02-12T03:24:37.262Z,13.50
2019-02-12T03:27:05.984Z,18.12
2019-02-12T03:29:34.322Z,15.13
2019-02-12T03:32:02.612Z,18.85
2019-02-12T03:34:31.590Z,8.53
2019-02-12T03:37:00.293Z,13.38
2019-02-12T03:39:29.005Z,20.82
2019-02-12T03:41:57.716Z,20.17
2019-02-12T03:44:26.457Z,11.50
2019-02-12T03:46:55.124Z,10.05
2019-02-12T03:49:23.836Z,14.18
2019-02-12T03:51:52.153Z,10.95
2019-02-12T03:54:20.846Z,10.72
2019-02-12T03:56:49.636Z,20.37
2019-02-12T03:59:18.434Z,14.63
2019-02-12T04:01:47.103Z,14.68
2019-02-12T04:04:15.773Z,22.15
2019-02-12T04:06:44.527Z,14.35
2019-02-12T04:09:13.201Z,23.00
2019-02-12T04:11:41.973Z,11.15
2019-02-12T04:14:10.244Z,21.68
2019-02-12T04:16:40.261Z,13.05
2019-02-12T04:19:09.089Z,12.80
2019-02-12T04:21:37.805Z,15.75
2019-02-12T04:24:06.580Z,14.18
2019-02-12T04:26:35.354Z,13.95
2019-02-12T04:29:04.034Z,13.55
2019-02-12T04:31:32.962Z,31.75
2019-02-12T04:34:01.972Z,14.13
2019-02-12T04:36:30.374Z,21.65
2019-02-12T04:38:59.089Z,30.08
2019-02-12T04:41:27.814Z,10.50
2019-02-12T04:43:56.597Z,10.58
2019-02-12T04:46:25.343Z,16.12
2019-02-12T04:48:54.055Z,14.93
2019-02-12T04:51:22.821Z,21.68
2019-02-12T04:53:51.496Z,17.95
2019-02-12T04:56:20.207Z,19.23
2019-02-12T04:58:48.571Z,16.55
2019-02-12T05:01:17.727Z,15.10
2019-02-12T05:03:46.457Z,13.40
2019-02-12T05:06:15.514Z,30.55
2019-02-12T05:09:15.654Z,23.98
2019-02-12T05:11:47.709Z,19.02
2019-02-12T05:14:16.432Z,11.53
2019-02-12T05:16:45.216Z,17.23
2019-02-12T05:19:13.990Z,11.93
2019-02-12T05:21:42.775Z,16.05
2019-02-12T05:24:11.068Z,15.40
2019-02-12T05:26:39.769Z,13.40
2019-02-12T05:29:08.853Z,13.00
2019-02-12T05:31:37.814Z,20.70
2019-02-12T05:34:06.565Z,17.07
2019-02-12T05:36:35.318Z,14.98
2019-02-12T05:39:04.849Z,12.63
2019-02-12T05:41:33.557Z,23.32
2019-02-12T05:44:02.219Z,16.85
2019-02-12T05:46:30.523Z,20.70
2019-02-12T05:48:59.191Z,19.07
2019-02-12T05:51:27.909Z,17.52
2019-02-12T05:53:56.656Z,17.67
2019-02-12T05:56:25.339Z,17.80
2019-02-12T05:58:54.122Z,14.98
2019-02-12T06:01:22.788Z,13.75
2019-02-12T06:03:51.474Z,16.42
2019-02-12T06:06:20.196Z,13.55
2019-02-12T06:08:48.518Z,27.85
2019-02-12T06:11:17.195Z,20.97
2019-02-12T06:13:45.881Z,23.62
2019-02-12T06:16:14.594Z,26.70
2019-02-12T06:18:43.284Z,15.72
2019-02-12T06:21:11.954Z,16.02
2019-02-12T06:23:40.665Z,16.73
2019-02-12T06:26:09.417Z,11.25
2019-02-12T06:28:38.227Z,17.82
2019-02-12T06:31:06.517Z,18.60
2019-02-12T06:33:35.209Z,25.68
2019-02-12T06:36:03.904Z,17.10
2019-02-12T06:38:32.674Z,16.85
2019-02-12T06:41:01.347Z,20.20
2019-02-12T06:43:30.281Z,15.90
2019-02-12T06:45:59.373Z,22.32
2019-02-12T06:48:28.374Z,21.45
2019-02-12T06:50:56.764Z,17.73
2019-02-12T06:53:25.453Z,19.60
2019-02-12T06:55:54.126Z,23.80
2019-02-12T06:58:22.898Z,14.58
2019-02-12T07:00:51.639Z,25.08
2019-02-12T07:03:22.716Z,17.85
2019-02-12T07:06:07.380Z,20.68
2019-02-12T07:08:57.721Z,14.38
2019-02-12T07:11:45.426Z,17.07
2019-02-12T07:14:59.897Z,19.80
2019-02-12T07:18:25.300Z,24.90
2019-02-12T07:21:21.002Z,22.55
2019-02-12T07:24:43.796Z,25.02
2019-02-12T07:27:48.855Z,23.98
2019-02-12T07:30:43.073Z,27.27
2019-02-12T07:33:38.083Z,23.22
2019-02-12T07:36:22.598Z,19.45
2019-02-12T07:39:17.441Z,22.25
2019-02-12T07:42:29.328Z,20.40
2019-02-12T07:45:08.658Z,29.95
2019-02-12T07:48:10.453Z,16.37
2019-02-12T07:50:45.785Z,25.37
2019-02-12T07:54:20.070Z,30.25
2019-02-12T07:57:37.773Z,42.48
2019-02-12T08:00:33.656Z,41.45
2019-02-12T08:03:42.561Z,30.35
2019-02-12T08:06:43.421Z,28.70
2019-02-12T08:09:48.874Z,30.62
2019-02-12T08:12:27.523Z,28.52
2019-02-12T08:15:02.246Z,30.48
2019-02-12T08:18:05.190Z,30.77
2019-02-12T08:21:02.256Z,29.05
2019-02-12T08:24:08.827Z,20.75
2019-02-12T08:27:13.882Z,26.27
2019-02-12T08:30:21.172Z,17.57
2019-02-12T08:33:37.833Z,22.52
2019-02-12T08:36:22.997Z,24.75
2019-02-12T08:39:16.857Z,20.32
2019-02-12T08:42:41.229Z,15.13
2019-02-12T08:45:46.214Z,23.42
2019-02-12T08:48:46.870Z,12.78
2019-02-12T08:52:09.581Z,19.37
2019-02-12T08:55:16.038Z,21.27
2019-02-12T08:58:34.082Z,16.65
2019-02-12T09:01:24.495Z,18.60
2019-02-12T09:04:26.654Z,23.32
2019-02-12T09:07:27.127Z,14.53
2019-02-12T09:10:22.558Z,21.48
2019-02-12T09:13:12.532Z,13.50
2019-02-12T09:15:56.187Z,12.93
2019-02-12T09:18:42.644Z,21.57
2019-02-12T09:21:54.801Z,19.62
2019-02-12T09:25:02.906Z,12.13
2019-02-12T09:28:08.733Z,19.10
2019-02-12T09:30:59.058Z,17.32
2019-02-12T09:34:12.207Z,11.28
2019-02-12T09:37:01.333Z,19.60
2019-02-12T09:40:18.845Z,22.40
2019-02-12T09:43:14.705Z,28.65
2019-02-12T09:45:50.957Z,17.35
2019-02-12T09:48:45.381Z,16.32
2019-02-12T09:51:51.005Z,94.05
2019-02-12T09:55:04.480Z,47.53
2019-02-12T09:57:59.940Z,39.10
2019-02-12T10:00:38.929Z,19.52
2019-02-12T10:03:33.154Z,27.10
2019-02-12T10:06:43.581Z,37.58
2019-02-12T10:09:37.733Z,33.05
2019-02-12T10:12:27.811Z,34.55
2019-02-12T10:15:30.842Z,26.55
2019-02-12T10:18:15.121Z,23.22
2019-02-12T10:20:53.473Z,22.73
2019-02-12T10:23:39.553Z,23.42
2019-02-12T10:26:10.974Z,21.62
2019-02-12T10:28:57.396Z,19.23
2019-02-12T10:31:45.538Z,14.65
2019-02-12T10:34:13.847Z,19.85
2019-02-12T10:36:42.524Z,22.87
2019-02-12T10:39:15.034Z,26.00
2019-02-12T10:41:43.720Z,19.50
2019-02-12T10:44:12.645Z,28.25
2019-02-12T10:46:41.313Z,19.37
2019-02-12T10:49:09.990Z,26.53
2019-02-12T10:51:38.664Z,33.42
2019-02-12T10:54:07.413Z,20.27
2019-02-12T10:56:35.793Z,23.02
2019-02-12T10:59:04.890Z,19.45
2019-02-12T11:01:33.700Z,32.73
2019-02-12T11:04:02.390Z,28.27
2019-02-12T11:06:31.065Z,32.40
2019-02-12T11:08:59.862Z,29.95
2019-02-12T11:11:28.849Z,22.82
2019-02-12T11:13:57.538Z,39.08
2019-02-12T11:16:26.246Z,42.30
2019-02-12T11:18:54.583Z,29.30
2019-02-12T11:21:23.276Z,45.28
2019-02-12T11:23:52.005Z,30.48
2019-02-12T11:26:21.018Z,22.55
2019-02-12T11:28:49.842Z,19.07
2019-02-12T11:31:18.829Z,33.17
2019-02-12T11:33:47.501Z,25.40
2019-02-12T11:36:16.242Z,17.80
2019-02-12T11:38:44.993Z,15.95
2019-02-12T11:41:13.289Z,16.30
2019-02-12T11:43:41.993Z,20.60
2019-02-12T11:46:10.722Z,26.00
2019-02-12T11:48:39.390Z,17.17
2019-02-12T11:51:08.052Z,22.97
2019-02-12T11:53:36.825Z,26.77
2019-02-12T11:56:05.525Z,12.10
2019-02-12T11:58:34.461Z,17.43
2019-02-12T12:01:05.854Z,16.07
2019-02-12T12:03:34.154Z,21.33
2019-02-12T12:06:03.860Z,12.57
2019-02-12T12:08:32.537Z,10.57
2019-02-12T12:11:01.217Z,12.70
2019-02-12T12:13:30.242Z,15.60
2019-02-12T12:15:58.916Z,12.37
2019-02-12T12:18:27.571Z,21.00
2019-02-12T12:20:56.229Z,19.70
2019-02-12T12:23:25.007Z,12.37
2019-02-12T12:25:53.295Z,13.10
2019-02-12T12:28:21.965Z,17.17
2019-02-12T12:30:50.741Z,18.80
2019-02-12T12:33:19.492Z,20.07
2019-02-12T12:35:48.168Z,37.50
2019-02-12T12:38:16.812Z,17.97
2019-02-12T12:40:45.513Z,12.23
2019-02-12T12:43:14.225Z,17.50
2019-02-12T12:45:42.758Z,17.63
2019-02-12T12:48:11.517Z,17.35
2019-02-12T12:50:40.240Z,18.70
2019-02-12T12:53:08.914Z,15.93
2019-02-12T12:55:37.589Z,19.83
2019-02-12T12:58:06.735Z,15.37
2019-02-12T13:00:35.427Z,14.50
2019-02-12T13:03:04.182Z,23.70
2019-02-12T13:05:32.842Z,11.20
2019-02-12T13:08:01.406Z,16.53
2019-02-12T13:10:30.075Z,14.83
2019-02-12T13:12:59.018Z,16.57
2019-02-12T13:15:27.758Z,10.07
2019-02-12T13:17:56.504Z,10.93
2019-02-12T13:20:25.156Z,13.33
2019-02-12T13:22:53.833Z,20.63
2019-02-12T13:25:22.535Z,18.13
2019-02-12T13:27:51.277Z,14.90
2019-02-12T13:30:19.645Z,15.10
2019-02-12T13:32:48.337Z,26.23
2019-02-12T13:35:17.017Z,22.07
2019-02-12T13:37:45.701Z,11.00
2019-02-12T13:40:14.397Z,12.33
2019-02-12T13:42:43.051Z,12.37
2019-02-12T13:45:14.056Z,12.83
2019-02-12T13:47:42.775Z,13.87
2019-02-12T13:50:11.537Z,11.97
2019-02-12T13:52:39.878Z,15.93
2019-02-12T13:55:15.403Z,10.97
2019-02-12T13:57:38.920Z,7.87
2019-02-12T14:00:09.862Z,13.53
2019-02-12T14:02:38.540Z,19.20
2019-02-12T14:05:10.151Z,11.70
2019-02-12T14:07:38.850Z,29.63
2019-02-12T14:10:07.814Z,30.10
2019-02-12T14:12:36.846Z,26.77
2019-02-12T14:15:05.315Z,15.90
2019-02-12T14:17:33.997Z,20.07
2019-02-12T14:20:02.742Z,19.90
2019-02-12T14:22:31.507Z,20.40
2019-02-12T14:25:00.230Z,25.23
2019-02-12T14:27:29.225Z,13.10
2019-02-12T14:29:57.959Z,12.90
2019-02-12T14:32:26.702Z,32.37
2019-02-12T14:34:55.439Z,17.97
2019-02-12T14:37:23.753Z,26.13
2019-02-12T14:39:52.446Z,14.23
2019-02-12T14:42:21.138Z,36.13
2019-02-12T14:44:49.904Z,19.43
2019-02-12T14:47:18.846Z,26.43
2019-02-12T14:49:48.124Z,15.73
2019-02-12T14:52:16.929Z,24.73
2019-02-12T14:54:45.624Z,23.80
2019-02-12T14:57:14.300Z,20.57
2019-02-12T14:59:42.673Z,17.83
2019-02-12T15:02:11.437Z,19.30
2019-02-12T15:04:40.117Z,31.67
2019-02-12T15:07:09.097Z,24.40
2019-02-12T15:09:37.879Z,33.03
2019-02-12T15:12:06.670Z,23.00
2019-02-12T15:14:35.330Z,19.60
2019-02-12T15:17:04.269Z,23.83
2019-02-12T15:19:32.575Z,15.33
2019-02-12T15:22:01.242Z,10.83
2019-02-12T15:24:29.917Z,9.80
2019-02-12T15:26:58.594Z,13.37
2019-02-12T15:29:27.354Z,16.63
2019-02-12T15:31:56.009Z,33.17
2019-02-12T15:34:24.721Z,12.77
2019-02-12T15:36:53.402Z,15.43
2019-02-12T15:39:22.069Z,13.13
2019-02-12T15:41:50.361Z,10.87
2019-02-12T15:44:19.389Z,11.33
2019-02-12T15:46:48.316Z,16.93
2019-02-12T15:49:17.062Z,31.90
2019-02-12T15:51:45.817Z,19.03
2019-02-12T15:54:14.728Z,13.60
2019-02-12T15:56:43.493Z,15.00
2019-02-12T15:59:12.823Z,21.27
2019-02-12T16:01:42.575Z,47.13
2019-02-12T16:04:11.073Z,57.87
2019-02-12T16:06:40.305Z,71.53
2019-02-12T16:09:10.410Z,55.73
2019-02-12T16:11:39.992Z,21.20
2019-02-12T16:14:11.914Z,15.33
2019-02-12T16:16:40.573Z,9.17
2019-02-12T16:19:09.661Z,13.00
2019-02-12T16:21:38.482Z,14.13
2019-02-12T16:24:07.269Z,11.73
2019-02-12T16:26:35.570Z,14.43
2019-02-12T16:29:04.318Z,12.93
2019-02-12T16:31:32.998Z,15.13
2019-02-12T16:34:01.691Z,86.40
2019-02-12T16:36:30.470Z,157.70
2019-02-12T16:38:59.155Z,43.37
2019-02-12T16:41:27.853Z,32.47
2019-02-12T16:43:56.552Z,18.20
2019-02-12T16:46:25.355Z,11.17
2019-02-12T16:48:53.674Z,17.40
2019-02-12T16:51:22.514Z,20.08
2019-02-12T16:53:51.210Z,15.48
2019-02-12T16:56:20.222Z,12.63
2019-02-12T16:58:48.997Z,22.03
2019-02-12T17:01:17.677Z,16.80
2019-02-12T17:03:46.374Z,14.30
2019-02-12T17:06:15.070Z,23.45
2019-02-12T17:08:43.366Z,13.32
2019-02-12T17:11:12.085Z,16.77
2019-02-12T17:13:41.222Z,17.12
2019-02-12T17:16:09.933Z,13.20
2019-02-12T17:18:38.669Z,27.07
2019-02-12T17:21:07.604Z,14.55
2019-02-12T17:23:36.293Z,14.78
2019-02-12T17:26:05.262Z,11.93
2019-02-12T17:28:33.933Z,11.65
2019-02-12T17:31:02.226Z,17.55
2019-02-12T17:33:30.970Z,16.50
2019-02-12T17:35:59.779Z,26.00
2019-02-12T17:38:28.435Z,16.07
2019-02-12T17:40:57.257Z,21.12
2019-02-12T17:43:25.942Z,18.80
2019-02-12T17:45:54.690Z,20.68
2019-02-12T17:48:23.356Z,28.02
2019-02-12T17:50:52.018Z,18.90
2019-02-12T17:53:20.503Z,25.23
2019-02-12T17:55:49.270Z,30.85
2019-02-12T17:58:18.290Z,20.08
2019-02-12T18:00:47.062Z,16.95
2019-02-12T18:03:15.821Z,18.40
2019-02-12T18:05:44.523Z,21.82
2019-02-12T18:08:13.193Z,44.50
2019-02-12T18:10:41.989Z,28.57
2019-02-12T18:13:10.709Z,29.23
2019-02-12T18:15:39.047Z,28.77
2019-02-12T18:18:07.841Z,32.10
2019-02-12T18:20:36.610Z,38.28
2019-02-12T18:23:05.475Z,22.58
2019-02-12T18:25:34.209Z,22.85
2019-02-12T18:28:02.921Z,28.02
2019-02-12T18:30:31.654Z,31.27
2019-02-12T18:33:00.350Z,26.20
2019-02-12T18:35:29.129Z,22.22
2019-02-12T18:37:57.451Z,27.67
2019-02-12T18:40:26.168Z,27.67
2019-02-12T18:42:54.938Z,29.60
2019-02-12T18:45:23.702Z,47.23
2019-02-12T18:47:52.411Z,63.30
2019-02-12T18:50:21.117Z,83.90
2019-02-12T18:52:49.842Z,39.85
2019-02-12T18:55:18.786Z,18.77
2019-02-12T18:57:47.653Z,20.62
2019-02-12T19:00:16.965Z,25.37
2019-02-12T19:02:45.646Z,26.60
2019-02-12T19:05:14.365Z,31.27
2019-02-12T19:07:43.124Z,32.42
2019-02-12T19:10:12.528Z,44.63
2019-02-12T19:12:41.485Z,43.65
2019-02-12T19:15:12.217Z,49.25
2019-02-12T19:17:41.265Z,50.05
2019-02-12T19:20:10.581Z,39.05
2019-02-12T19:22:39.297Z,38.30
2019-02-12T19:25:08.694Z,42.43
2019-02-12T19:27:37.456Z,39.83
2019-02-12T19:30:06.713Z,36.73
2019-02-12T19:32:35.491Z,35.85
2019-02-12T19:35:05.018Z,36.13
2019-02-12T19:37:33.851Z,37.55
2019-02-12T19:40:02.616Z,27.95
2019-02-12T19:42:30.993Z,34.88
2019-02-12T19:44:59.790Z,25.55
2019-02-12T19:47:28.520Z,27.90
2019-02-12T19:49:57.730Z,27.42
2019-02-12T19:52:26.487Z,43.65
2019-02-12T19:54:55.319Z,41.13
2019-02-12T19:57:24.098Z,60.78
2019-02-12T19:59:52.893Z,49.18
2019-02-12T20:02:21.630Z,56.08
2019-02-12T20:04:49.916Z,45.08
2019-02-12T20:07:18.723Z,54.55
2019-02-12T20:09:47.625Z,57.23
2019-02-12T20:12:16.574Z,62.67
2019-02-12T20:14:45.486Z,66.90
2019-02-12T20:17:14.308Z,102.97
2019-02-12T20:19:43.018Z,77.55
2019-02-12T20:22:12.012Z,56.77
2019-02-12T20:24:40.787Z,52.83
2019-02-12T20:27:09.213Z,41.13
2019-02-12T20:29:37.985Z,37.90
2019-02-12T20:32:06.644Z,39.27
2019-02-12T20:34:35.361Z,30.50
2019-02-12T20:37:04.074Z,35.95
2019-02-12T20:39:33.765Z,30.27
2019-02-12T20:42:03.458Z,40.60
2019-02-12T20:44:32.446Z,33.18
2019-02-12T20:47:01.527Z,31.50
2019-02-12T20:49:30.170Z,39.33
2019-02-12T20:51:59.133Z,36.75
2019-02-12T20:54:27.891Z,33.95
2019-02-12T20:56:56.596Z,38.17
2019-02-12T20:59:25.262Z,29.65
2019-02-12T21:01:54.984Z,46.28
2019-02-12T21:04:23.660Z,39.70
2019-02-12T21:06:52.377Z,44.35
2019-02-12T21:09:20.945Z,40.98
2019-02-12T21:11:49.692Z,50.10
2019-02-12T21:14:18.401Z,40.15
2019-02-12T21:16:47.353Z,51.08
2019-02-12T21:19:16.138Z,32.83
2019-02-12T21:21:44.886Z,32.05
2019-02-12T21:24:13.548Z,36.93
2019-02-12T21:26:42.286Z,32.30
2019-02-12T21:29:10.950Z,27.17
2019-02-12T21:31:39.242Z,25.48
2019-02-12T21:34:09.961Z,24.15
2019-02-12T21:36:38.689Z,28.47
2019-02-12T21:39:12.778Z,23.92
2019-02-12T21:41:44.037Z,21.77
2019-02-12T21:44:12.809Z,20.40
2019-02-12T21:46:43.283Z,32.30
2019-02-12T21:49:12.104Z,26.95
2019-02-12T21:51:42.508Z,19.42
2019-02-12T21:54:10.865Z,21.75
2019-02-12T21:56:40.763Z,27.30
2019-02-12T21:59:09.700Z,31.00
2019-02-12T22:01:41.617Z,32.25
2019-02-12T22:04:10.593Z,30.55
2019-02-12T22:06:39.360Z,32.33
2019-02-12T22:09:15.308Z,66.82
2019-02-12T22:11:45.278Z,37.33
2019-02-12T22:14:18.736Z,36.85
2019-02-12T22:16:57.441Z,37.67
2019-02-12T22:19:28.619Z,24.45
2019-02-12T22:21:57.752Z,27.98
2019-02-12T22:24:26.488Z,24.20
2019-02-12T22:26:55.256Z,19.30
2019-02-12T22:29:23.947Z,25.00
2019-02-12T22:31:52.620Z,22.02
2019-02-12T22:34:21.317Z,23.15
2019-02-12T22:36:49.988Z,21.40
2019-02-12T22:39:18.673Z,17.77
2019-02-12T22:41:47.025Z,21.07
2019-02-12T22:44:15.716Z,23.87
2019-02-12T22:46:44.512Z,21.50
2019-02-12T22:49:13.392Z,21.48
2019-02-12T22:51:43.337Z,22.13
2019-02-12T22:54:13.420Z,16.17
2019-02-12T22:56:43.345Z,23.15
2019-02-12T22:59:12.128Z,18.12
2019-02-12T23:01:49.758Z,21.27
2019-02-12T23:04:18.097Z,18.45
2019-02-12T23:06:46.849Z,19.57
2019-02-12T23:09:17.453Z,18.90
2019-02-12T23:11:48.262Z,17.90
2019-02-12T23:14:18.457Z,15.05
2019-02-12T23:16:47.109Z,15.95
2019-02-12T23:19:15.766Z,17.27
2019-02-12T23:21:44.424Z,18.77
2019-02-12T23:24:13.194Z,16.97
2019-02-12T23:26:42.508Z,16.50
2019-02-12T23:29:11.491Z,18.98
2019-02-12T23:31:46.935Z,27.48
2019-02-12T23:34:19.756Z,25.17
2019-02-12T23:36:48.444Z,23.05
2019-02-12T23:39:17.145Z,15.53
2019-02-12T23:41:45.824Z,19.30
2019-02-12T23:44:15.717Z,26.55
2019-02-12T23:46:51.652Z,19.37
2019-02-12T23:49:20.376Z,22.67
2019-02-12T23:51:48.649Z,17.05
2019-02-12T23:54:17.384Z,14.45
2019-02-12T23:56:46.116Z,23.32
2019-02-12T23:59:14.786Z,22.27
